Time;durP1;ratioP1;P1;durP2;ratioP2;P2;SDS_P1;SDS_P2;PMS_P1;PMS_P2;Temp;Humidity;BMP_temperature;BMP_pressure;BME280_temperature;BME280_humidity;BME280_pressure;Samples;Min_cycle;Max_cycle;Signal;HPM_P1;HPM_P2
2023/09/18 00:00:35;;;;;;;9.93;6.82;;;14.50;99.90;;;;;;10299831;28;20284;-86
2023/09/18 00:05:37;;;;;;;8.98;7.68;;;14.60;99.90;;;;;;10291126;28;20688;-86
2023/09/18 00:10:40;;;;;;;10.02;8.23;;;14.50;99.90;;;;;;10290832;28;20627;-86
2023/09/18 00:15:46;;;;;;;8.60;6.57;;;14.50;99.90;;;;;;10274380;28;20312;-86
2023/09/18 00:20:51;;;;;;;9.48;8.43;;;14.60;99.90;;;;;;10291064;28;20276;-86
2023/09/18 00:25:54;;;;;;;7.63;6.93;;;14.40;99.90;;;;;;10290847;28;20240;-86
2023/09/18 00:30:57;;;;;;;9.20;8.32;;;14.50;99.90;;;;;;10291777;28;20307;-86
2023/09/18 00:36:00;;;;;;;12.60;7.93;;;14.40;99.90;;;;;;10274169;28;20249;-86
2023/09/18 00:41:02;;;;;;;10.77;8.00;;;14.50;99.90;;;;;;10304618;28;20245;-85
2023/09/18 00:46:05;;;;;;;9.35;8.43;;;14.40;99.90;;;;;;10273265;28;20261;-86
2023/09/18 00:51:08;;;;;;;9.38;7.63;;;14.30;99.90;;;;;;10289681;28;20198;-86
2023/09/18 00:56:11;;;;;;;12.35;8.93;;;14.20;99.90;;;;;;10290503;28;20312;-86
2023/09/18 01:01:22;;;;;;;8.50;7.28;;;14.10;99.90;;;;;;10290168;28;20233;-86
2023/09/18 01:06:27;;;;;;;9.55;7.78;;;14.30;99.90;;;;;;10288516;28;20291;-86
2023/09/18 01:12:02;;;;;;;6.95;6.30;;;14.40;99.90;;;;;;10286838;28;20649;-86
2023/09/18 01:17:07;;;;;;;9.07;8.18;;;14.40;99.90;;;;;;10274788;28;20268;-86
2023/09/18 01:22:16;;;;;;;10.82;8.00;;;14.40;99.90;;;;;;10288190;28;20249;-86
2023/09/18 01:27:19;;;;;;;14.10;8.38;;;14.30;99.90;;;;;;10288570;28;20650;-86
2023/09/18 01:32:27;;;;;;;8.40;7.65;;;14.10;99.90;;;;;;10325668;28;20244;-86
2023/09/18 01:37:31;;;;;;;13.20;9.13;;;14.20;99.90;;;;;;10327633;28;21011;-86
2023/09/18 01:42:35;;;;;;;9.13;8.23;;;14.00;99.90;;;;;;10289839;28;20238;-86
2023/09/18 01:47:37;;;;;;;12.73;8.55;;;14.00;99.90;;;;;;10287802;28;20273;-87
2023/09/18 01:52:40;;;;;;;8.63;7.72;;;14.00;99.90;;;;;;10271056;28;20548;-87
2023/09/18 01:57:43;;;;;;;9.35;8.20;;;14.00;99.90;;;;;;10287524;28;20261;-87
2023/09/18 02:02:46;;;;;;;9.70;7.18;;;14.00;99.90;;;;;;10269900;28;20233;-87
2023/09/18 02:08:08;;;;;;;8.68;7.78;;;13.90;99.90;;;;;;10286576;28;20287;-87
2023/09/18 02:13:11;;;;;;;5.70;5.18;;;14.00;99.90;;;;;;10284990;28;20217;-87
2023/09/18 02:18:15;;;;;;;10.65;8.55;;;14.00;99.90;;;;;;10284538;28;20330;-86
2023/09/18 02:23:19;;;;;;;8.95;7.82;;;14.00;99.90;;;;;;10287313;28;20264;-87
2023/09/18 02:28:22;;;;;;;10.18;8.30;;;14.00;99.90;;;;;;10286908;28;20252;-87
2023/09/18 02:33:24;;;;;;;11.77;8.25;;;14.00;99.90;;;;;;10285110;28;20296;-87
2023/09/18 02:38:30;;;;;;;12.77;8.65;;;13.90;99.90;;;;;;10285487;28;20271;-86
2023/09/18 02:43:33;;;;;;;15.25;8.10;;;13.90;99.90;;;;;;10291014;28;20256;-87
2023/09/18 02:48:36;;;;;;;10.80;9.25;;;13.90;99.90;;;;;;10350020;28;20236;-86
2023/09/18 02:53:38;;;;;;;9.82;8.38;;;13.80;99.90;;;;;;10320518;28;20264;-86
2023/09/18 02:58:41;;;;;;;10.15;8.95;;;13.90;99.90;;;;;;10342298;28;20255;-87
2023/09/18 03:03:44;;;;;;;7.25;6.57;;;14.00;99.90;;;;;;10358806;28;20634;-86
2023/09/18 03:08:47;;;;;;;7.22;6.55;;;14.10;99.90;;;;;;10308380;28;20674;-87
2023/09/18 03:13:51;;;;;;;12.20;8.90;;;14.20;99.90;;;;;;10307308;28;20299;-87
2023/09/18 03:18:55;;;;;;;12.13;9.15;;;14.10;99.90;;;;;;10305242;28;20265;-87
2023/09/18 03:23:57;;;;;;;10.25;8.85;;;13.90;99.90;;;;;;10344118;28;20232;-87
2023/09/18 03:29:00;;;;;;;10.75;9.65;;;14.00;99.90;;;;;;10314711;28;20684;-87
2023/09/18 03:34:03;;;;;;;13.07;9.43;;;14.10;99.90;;;;;;10314798;28;20244;-87
2023/09/18 03:39:05;;;;;;;8.15;6.95;;;14.20;99.90;;;;;;10315893;28;20723;-87
2023/09/18 03:44:09;;;;;;;10.88;9.77;;;14.20;99.90;;;;;;10315052;28;20260;-86
2023/09/18 03:49:12;;;;;;;14.88;11.45;;;14.30;99.90;;;;;;10315729;28;20213;-87
2023/09/18 03:54:16;;;;;;;13.57;12.05;;;14.00;99.90;;;;;;10315634;28;20201;-86
2023/09/18 03:59:18;;;;;;;11.98;10.77;;;14.00;99.90;;;;;;10315310;28;20311;-87
2023/09/18 04:04:21;;;;;;;17.95;12.07;;;14.00;99.90;;;;;;10332619;28;20225;-86
2023/09/18 04:09:24;;;;;;;15.57;11.00;;;14.00;99.90;;;;;;10314445;28;20399;-86
2023/09/18 04:14:26;;;;;;;17.45;12.55;;;13.90;99.90;;;;;;10313578;28;20244;-87
2023/09/18 04:19:30;;;;;;;14.55;11.05;;;13.90;99.90;;;;;;10314016;28;20313;-87
2023/09/18 04:24:33;;;;;;;16.67;12.18;;;14.00;99.90;;;;;;10314531;28;20286;-87
2023/09/18 04:29:35;;;;;;;15.75;11.93;;;14.00;99.90;;;;;;10328235;28;20307;-87
2023/09/18 04:34:39;;;;;;;16.35;12.48;;;14.00;99.90;;;;;;10313743;28;20236;-87
2023/09/18 04:39:41;;;;;;;17.48;11.57;;;14.00;99.90;;;;;;10327394;28;20287;-87
2023/09/18 04:44:44;;;;;;;12.32;10.65;;;14.10;99.90;;;;;;10280651;28;20265;-87
2023/09/18 04:49:49;;;;;;;15.98;11.77;;;14.20;99.90;;;;;;10284955;28;20229;-87
2023/09/18 04:54:54;;;;;;;10.95;8.68;;;14.20;99.90;;;;;;10288488;28;20292;-86
2023/09/18 04:59:57;;;;;;;13.65;9.40;;;14.20;99.90;;;;;;10272398;28;20720;-87
2023/09/18 05:05:15;;;;;;;22.58;14.43;;;14.40;99.90;;;;;;10285135;28;20226;-86
2023/09/18 05:10:18;;;;;;;20.15;15.32;;;14.50;99.90;;;;;;10287293;28;20767;-87
2023/09/18 05:15:20;;;;;;;19.58;15.40;;;14.60;99.90;;;;;;10288177;28;20914;-86
2023/09/18 05:20:24;;;;;;;14.18;10.00;;;14.60;99.90;;;;;;10287025;28;20277;-85
2023/09/18 05:25:29;;;;;;;17.65;11.88;;;14.80;99.90;;;;;;10288733;28;20691;-87
2023/09/18 05:30:38;;;;;;;19.35;13.82;;;15.00;99.90;;;;;;10289082;28;20233;-86
2023/09/18 05:35:44;;;;;;;10.60;9.60;;;15.30;99.90;;;;;;10286664;28;20690;-86
2023/09/18 05:40:47;;;;;;;15.73;13.48;;;15.50;99.90;;;;;;10282968;28;20673;-87
2023/09/18 05:45:49;;;;;;;16.00;11.38;;;15.70;99.90;;;;;;10290414;28;20343;-85
2023/09/18 05:50:54;;;;;;;19.88;15.60;;;15.90;99.90;;;;;;10280394;28;20229;-84
2023/09/18 05:56:03;;;;;;;14.32;12.82;;;16.10;99.90;;;;;;10319277;28;20229;-83
2023/09/18 06:01:07;;;;;;;12.90;11.60;;;16.50;99.90;;;;;;10270186;28;20253;-83
2023/09/18 06:06:10;;;;;;;14.35;12.55;;;16.60;99.90;;;;;;10287476;28;20245;-83
2023/09/18 06:11:13;;;;;;;27.67;17.80;;;16.80;99.90;;;;;;10281868;28;20319;-83
2023/09/18 06:16:15;;;;;;;21.83;14.05;;;17.00;99.90;;;;;;10285374;28;20760;-83
2023/09/18 06:21:18;;;;;;;11.95;10.68;;;17.10;99.90;;;;;;10320960;28;20265;-83
2023/09/18 06:26:21;;;;;;;14.65;13.13;;;17.30;99.90;;;;;;10327078;28;20966;-83
2023/09/18 06:31:24;;;;;;;12.45;11.23;;;17.50;99.90;;;;;;10316528;28;20660;-83
2023/09/18 06:36:26;;;;;;;11.75;10.05;;;17.70;99.90;;;;;;10298781;28;20233;-83
2023/09/18 06:41:29;;;;;;;18.13;9.75;;;17.90;99.90;;;;;;10287603;28;20905;-83
2023/09/18 06:46:31;;;;;;;10.52;8.77;;;18.10;99.90;;;;;;10327403;28;20253;-83
2023/09/18 06:51:34;;;;;;;10.43;7.45;;;18.30;99.90;;;;;;10292013;28;20296;-83
2023/09/18 06:56:45;;;;;;;8.93;8.02;;;18.50;99.90;;;;;;10270746;28;20214;-83
2023/09/18 07:01:47;;;;;;;13.40;10.90;;;18.70;99.90;;;;;;10292558;28;20263;-83
2023/09/18 07:06:50;;;;;;;10.85;9.32;;;18.90;99.90;;;;;;10281310;28;20690;-83
2023/09/18 07:11:52;;;;;;;8.60;7.70;;;19.10;99.90;;;;;;10249013;28;20233;-83
2023/09/18 07:16:55;;;;;;;9.73;8.02;;;19.20;99.90;;;;;;10294669;28;20853;-83
2023/09/18 07:21:57;;;;;;;9.93;8.85;;;19.40;99.90;;;;;;10294055;28;20680;-83
2023/09/18 07:27:00;;;;;;;6.20;5.70;;;19.60;99.90;;;;;;10314311;28;20236;-84
2023/09/18 07:32:03;;;;;;;11.52;9.38;;;19.80;99.90;;;;;;10294978;28;20264;-82
2023/09/18 07:37:06;;;;;;;8.75;7.25;;;20.10;99.90;;;;;;10278809;28;20931;-82
2023/09/18 07:42:08;;;;;;;14.63;8.52;;;20.30;99.90;;;;;;10276357;28;20213;-83
2023/09/18 07:47:11;;;;;;;9.80;7.35;;;20.50;99.90;;;;;;10292706;28;20287;-83
2023/09/18 07:52:14;;;;;;;12.02;10.63;;;20.80;99.90;;;;;;10321044;28;20236;-82
2023/09/18 07:57:17;;;;;;;10.77;9.18;;;21.10;99.90;;;;;;10285699;28;20304;-83
2023/09/18 08:02:21;;;;;;;6.68;6.13;;;21.30;99.90;;;;;;10279194;28;20699;-83
2023/09/18 08:07:24;;;;;;;7.95;7.15;;;21.60;99.90;;;;;;10289832;28;20237;-83
2023/09/18 08:12:26;;;;;;;6.78;6.10;;;21.80;99.90;;;;;;10289261;28;20241;-83
2023/09/18 08:17:29;;;;;;;11.45;7.32;;;22.00;99.90;;;;;;10289719;28;20303;-82
2023/09/18 08:22:31;;;;;;;5.20;4.70;;;22.20;99.90;;;;;;10288339;28;20295;-83
2023/09/18 08:27:35;;;;;;;8.85;6.93;;;22.50;99.40;;;;;;10288063;28;20237;-83
2023/09/18 08:32:39;;;;;;;8.43;7.35;;;22.70;98.30;;;;;;10283606;28;20276;-83
2023/09/18 08:37:42;;;;;;;7.43;5.57;;;22.90;98.30;;;;;;10288206;28;20253;-82
2023/09/18 08:42:47;;;;;;;5.38;4.88;;;23.10;97.50;;;;;;10287962;28;20225;-83
2023/09/18 08:47:51;;;;;;;6.78;6.18;;;23.20;96.40;;;;;;10284719;28;20264;-83
2023/09/18 08:53:03;;;;;;;7.45;6.75;;;23.30;95.50;;;;;;10280611;28;20683;-83
2023/09/18 08:58:08;;;;;;;8.77;6.32;;;23.50;95.90;;;;;;10287868;28;20312;-83
2023/09/18 09:03:10;;;;;;;9.80;8.65;;;23.70;94.50;;;;;;10287272;28;20770;-83
2023/09/18 09:08:13;;;;;;;7.78;6.97;;;23.80;94.50;;;;;;10289356;28;20234;-82
2023/09/18 09:13:15;;;;;;;6.20;5.60;;;23.90;93.90;;;;;;10287444;28;20287;-82
2023/09/18 09:18:50;;;;;;;6.88;6.13;;;23.90;92.80;;;;;;10286937;28;20296;-82
2023/09/18 09:23:55;;;;;;;7.32;6.63;;;24.00;92.10;;;;;;10285405;28;20229;-83
2023/09/18 09:29:18;;;;;;;12.07;7.45;;;24.10;92.80;;;;;;10288098;28;20669;-83
2023/09/18 09:34:26;;;;;;;8.57;7.75;;;24.20;92.30;;;;;;10286359;28;20629;-83
2023/09/18 09:39:30;;;;;;;8.35;6.03;;;24.20;91.90;;;;;;10301904;28;20720;-83
2023/09/18 09:44:33;;;;;;;10.60;8.35;;;24.30;91.50;;;;;;10286441;28;20261;-83
2023/09/18 09:49:48;;;;;;;9.88;6.93;;;24.30;91.60;;;;;;10283383;28;20268;-83
2023/09/18 09:54:50;;;;;;;9.90;7.13;;;24.40;91.50;;;;;;10283025;28;20299;-83
2023/09/18 10:00:26;;;;;;;8.90;7.30;;;24.40;91.20;;;;;;10281535;28;20316;-83
2023/09/18 10:05:34;;;;;;;5.53;4.70;;;24.50;90.70;;;;;;10285653;28;20229;-83
2023/09/18 10:11:10;;;;;;;7.47;6.22;;;24.50;88.40;;;;;;10286333;28;20981;-83
2023/09/18 10:16:19;;;;;;;5.72;5.25;;;24.60;88.60;;;;;;10273256;28;20272;-83
2023/09/18 10:21:48;;;;;;;6.40;5.80;;;24.70;88.70;;;;;;10284268;28;20710;-83
2023/09/18 10:26:56;;;;;;;6.85;6.15;;;24.70;87.10;;;;;;10283894;28;20802;-83
2023/09/18 10:32:09;;;;;;;5.35;4.93;;;24.80;89.40;;;;;;10284656;28;20260;-83
2023/09/18 10:37:15;;;;;;;6.80;6.15;;;24.80;86.20;;;;;;10285105;28;20228;-83
2023/09/18 10:42:20;;;;;;;6.70;5.18;;;24.70;86.90;;;;;;10283574;28;20296;-83
2023/09/18 10:47:24;;;;;;;7.65;5.72;;;24.70;84.80;;;;;;10317365;28;20253;-83
2023/09/18 10:52:27;;;;;;;7.32;5.63;;;24.80;84.90;;;;;;10325097;28;20236;-83
2023/09/18 10:57:36;;;;;;;5.70;5.05;;;24.90;85.60;;;;;;10304785;28;20241;-83
2023/09/18 11:02:38;;;;;;;5.80;5.20;;;24.90;84.60;;;;;;10324596;28;20260;-83
2023/09/18 11:07:41;;;;;;;4.80;4.28;;;24.90;80.80;;;;;;10323621;28;20745;-83
2023/09/18 11:12:48;;;;;;;7.75;6.05;;;24.90;81.00;;;;;;10320317;28;20240;-84
2023/09/18 11:17:59;;;;;;;8.52;6.22;;;25.00;80.00;;;;;;10308059;28;20636;-83
2023/09/18 11:23:14;;;;;;;4.82;4.43;;;25.10;78.00;;;;;;10324847;28;20224;-83
2023/09/18 11:28:23;;;;;;;7.28;6.60;;;25.10;77.80;;;;;;10307456;28;20248;-83
2023/09/18 11:33:44;;;;;;;8.02;7.18;;;25.20;78.60;;;;;;10307115;28;20245;-83
2023/09/18 11:39:03;;;;;;;6.10;5.50;;;25.40;74.20;;;;;;10324200;28;20252;-83
2023/09/18 11:44:18;;;;;;;13.90;7.68;;;25.50;68.90;;;;;;10297741;28;20668;-84
2023/09/18 11:49:26;;;;;;;8.73;6.82;;;25.60;72.20;;;;;;10288406;28;20283;-84
2023/09/18 11:54:29;;;;;;;8.73;6.65;;;25.60;70.50;;;;;;10289051;28;20657;-84
2023/09/18 11:59:38;;;;;;;6.35;5.75;;;25.60;69.30;;;;;;10287036;28;20276;-84
2023/09/18 12:04:48;;;;;;;13.98;6.85;;;25.70;63.80;;;;;;10287184;28;20233;-84
2023/09/18 12:09:51;;;;;;;7.32;5.82;;;25.70;66.70;;;;;;10291114;28;20276;-84
2023/09/18 12:14:53;;;;;;;7.32;6.63;;;25.90;61.10;;;;;;10289465;28;20244;-84
2023/09/18 12:19:56;;;;;;;8.02;5.22;;;26.00;58.60;;;;;;10287812;28;20288;-84
2023/09/18 12:25:13;;;;;;;5.03;4.53;;;25.90;60.10;;;;;;10290303;28;20249;-84
2023/09/18 12:30:20;;;;;;;5.20;4.75;;;25.80;60.80;;;;;;10289760;28;20233;-84
2023/09/18 12:35:29;;;;;;;6.55;5.00;;;25.80;56.50;;;;;;10287731;28;20674;-83
2023/09/18 12:40:34;;;;;;;7.57;5.32;;;25.90;53.20;;;;;;10289162;28;20634;-84
2023/09/18 12:45:37;;;;;;;4.75;4.35;;;25.90;53.70;;;;;;10286032;28;20320;-84
2023/09/18 12:50:41;;;;;;;8.02;5.07;;;25.70;59.00;;;;;;10289032;28;20226;-84
2023/09/18 12:55:43;;;;;;;4.38;3.90;;;25.70;52.40;;;;;;10286128;28;20229;-84
2023/09/18 13:00:50;;;;;;;6.85;5.60;;;25.70;57.10;;;;;;10288756;28;20292;-84
2023/09/18 13:05:54;;;;;;;9.68;7.20;;;25.70;55.10;;;;;;10284848;28;20289;-84
2023/09/18 13:10:57;;;;;;;7.28;6.25;;;25.90;51.70;;;;;;10286552;28;20984;-84
2023/09/18 13:16:04;;;;;;;11.75;6.40;;;25.90;52.70;;;;;;10287319;28;20307;-84
2023/09/18 13:21:11;;;;;;;8.35;5.88;;;25.90;48.50;;;;;;10287890;28;20245;-83
2023/09/18 13:26:14;;;;;;;10.63;4.75;;;26.00;48.80;;;;;;10286874;28;20233;-83
2023/09/18 13:31:18;;;;;;;14.13;7.65;;;26.00;50.50;;;;;;10287562;28;20639;-83
2023/09/18 13:36:20;;;;;;;14.85;8.38;;;26.10;49.00;;;;;;10288309;28;20249;-83
2023/09/18 13:41:23;;;;;;;8.35;5.38;;;26.20;46.90;;;;;;10287533;28;20675;-83
2023/09/18 13:46:25;;;;;;;7.53;5.68;;;26.20;51.00;;;;;;10248600;28;20269;-83
2023/09/18 13:51:28;;;;;;;6.47;5.75;;;26.20;51.70;;;;;;10273559;28;20638;-83
2023/09/18 13:56:30;;;;;;;12.98;8.65;;;26.20;50.70;;;;;;10287467;28;20241;-83
2023/09/18 14:01:33;;;;;;;12.85;8.52;;;26.10;50.50;;;;;;10286811;28;20330;-83
2023/09/18 14:06:36;;;;;;;13.88;7.15;;;26.10;51.50;;;;;;10287329;28;20241;-83
2023/09/18 14:11:38;;;;;;;9.88;8.02;;;26.20;51.20;;;;;;10286496;28;20241;-83
2023/09/18 14:16:41;;;;;;;11.13;8.35;;;26.20;50.70;;;;;;10286388;28;20296;-83
2023/09/18 14:21:44;;;;;;;9.88;8.60;;;26.30;50.40;;;;;;10287124;28;20253;-83
2023/09/18 14:26:47;;;;;;;6.10;5.22;;;26.30;50.50;;;;;;10285286;28;20240;-83
2023/09/18 14:31:49;;;;;;;12.68;8.80;;;26.20;50.90;;;;;;10284194;28;20291;-84
2023/09/18 14:36:54;;;;;;;5.63;5.05;;;26.20;50.10;;;;;;10284093;28;20233;-84
2023/09/18 14:41:56;;;;;;;5.13;4.57;;;26.10;51.40;;;;;;10284077;28;20276;-84
2023/09/18 14:46:59;;;;;;;7.55;5.15;;;26.10;54.30;;;;;;10285424;28;20669;-83
2023/09/18 14:52:03;;;;;;;11.85;8.35;;;26.00;55.70;;;;;;10285050;28;20264;-83
2023/09/18 14:57:05;;;;;;;14.73;8.65;;;26.00;55.10;;;;;;10283838;28;20237;-83
2023/09/18 15:02:08;;;;;;;17.17;8.35;;;26.00;50.90;;;;;;10283966;28;20257;-83
2023/09/18 15:07:11;;;;;;;7.15;4.63;;;26.00;47.90;;;;;;10281380;28;20265;-83
2023/09/18 15:12:14;;;;;;;9.32;5.22;;;26.00;53.00;;;;;;10285574;28;20245;-83
2023/09/18 15:17:16;;;;;;;7.28;5.88;;;25.90;54.70;;;;;;10284703;28;20260;-83
2023/09/18 15:22:19;;;;;;;12.05;9.07;;;25.70;53.60;;;;;;10286520;28;20253;-83
2023/09/18 15:27:22;;;;;;;13.20;9.95;;;25.50;54.00;;;;;;10290195;28;20229;-83
2023/09/18 15:32:25;;;;;;;9.43;8.45;;;25.40;55.20;;;;;;10292628;28;20671;-84
2023/09/18 15:37:31;;;;;;;11.70;9.20;;;25.30;55.80;;;;;;10288479;28;20741;-83
2023/09/18 15:42:34;;;;;;;9.20;7.85;;;25.20;59.00;;;;;;10288967;28;20272;-84
2023/09/18 15:47:37;;;;;;;8.13;7.32;;;25.10;61.70;;;;;;10290767;28;20249;-83
2023/09/18 15:52:40;;;;;;;7.80;6.13;;;24.90;64.20;;;;;;10289379;28;20229;-83
2023/09/18 15:57:43;;;;;;;11.90;8.57;;;24.80;66.00;;;;;;10290637;28;21298;-84
2023/09/18 16:02:46;;;;;;;14.70;7.53;;;24.60;68.30;;;;;;10290275;28;20753;-84
2023/09/18 16:07:49;;;;;;;9.38;8.38;;;24.50;70.80;;;;;;10292017;28;20233;-83
2023/09/18 16:12:51;;;;;;;7.10;6.05;;;24.40;73.70;;;;;;10306630;28;20353;-83
2023/09/18 16:17:54;;;;;;;6.95;6.40;;;24.20;76.10;;;;;;10291201;28;20260;-83
2023/09/18 16:22:57;;;;;;;11.15;7.57;;;24.10;78.30;;;;;;10291771;28;20324;-83
2023/09/18 16:28:01;;;;;;;6.38;5.70;;;24.00;79.60;;;;;;10291276;28;20287;-83
2023/09/18 16:33:04;;;;;;;7.47;5.95;;;23.90;81.00;;;;;;10290327;28;20233;-83
2023/09/18 16:38:07;;;;;;;10.57;7.85;;;23.80;82.70;;;;;;10289557;28;20288;-83
2023/09/18 16:43:10;;;;;;;13.45;8.43;;;23.70;84.00;;;;;;10291012;28;20669;-83
2023/09/18 16:48:13;;;;;;;7.78;6.97;;;23.60;85.30;;;;;;10304145;28;20696;-84
2023/09/18 16:53:15;;;;;;;10.82;8.48;;;23.50;87.80;;;;;;10330713;28;20298;-84
2023/09/18 16:58:18;;;;;;;11.25;9.13;;;23.40;89.80;;;;;;10296091;28;20241;-84
2023/09/18 17:03:21;;;;;;;14.18;8.18;;;23.30;90.90;;;;;;10288222;28;20253;-84
2023/09/18 17:08:25;;;;;;;11.23;10.13;;;23.20;91.60;;;;;;10289777;28;20233;-84
2023/09/18 17:13:28;;;;;;;12.10;9.50;;;23.10;91.80;;;;;;10289861;28;20649;-83
2023/09/18 17:18:30;;;;;;;14.73;10.60;;;22.90;92.20;;;;;;10271259;28;20311;-83
2023/09/18 17:23:33;;;;;;;12.68;11.32;;;22.80;92.60;;;;;;10284296;28;20261;-84
2023/09/18 17:28:35;;;;;;;12.75;10.43;;;22.60;93.20;;;;;;10249887;29;20275;-83
2023/09/18 17:33:38;;;;;;;15.95;12.07;;;22.50;93.80;;;;;;10284108;28;20237;-83
2023/09/18 17:38:42;;;;;;;17.75;11.45;;;22.30;94.50;;;;;;10288031;28;20292;-83
2023/09/18 17:43:45;;;;;;;17.23;11.45;;;22.20;95.00;;;;;;10293742;28;20264;-83
2023/09/18 17:48:47;;;;;;;19.77;12.93;;;22.00;96.10;;;;;;10323578;28;20271;-84
2023/09/18 17:53:50;;;;;;;27.75;14.30;;;22.00;96.60;;;;;;10328209;28;20228;-84
2023/09/18 17:58:52;;;;;;;14.27;11.93;;;21.80;97.50;;;;;;10310090;28;20237;-83
2023/09/18 18:03:57;;;;;;;15.88;12.20;;;21.70;97.60;;;;;;10323660;28;20256;-83
2023/09/18 18:09:01;;;;;;;20.27;12.55;;;21.60;98.10;;;;;;10327216;28;20240;-83
2023/09/18 18:14:03;;;;;;;22.58;13.38;;;21.50;98.80;;;;;;10328011;28;20300;-83
2023/09/18 18:19:06;;;;;;;23.88;14.45;;;21.40;99.20;;;;;;10324959;28;20244;-83
2023/09/18 18:24:09;;;;;;;16.08;11.85;;;21.40;99.60;;;;;;10327238;28;20260;-83
2023/09/18 18:29:12;;;;;;;10.98;9.90;;;21.30;99.30;;;;;;10309620;28;20282;-83
2023/09/18 18:34:14;;;;;;;12.68;9.25;;;21.40;99.30;;;;;;10326192;28;20284;-83
2023/09/18 18:39:17;;;;;;;12.35;11.05;;;21.40;99.30;;;;;;10308896;28;20271;-83
2023/09/18 18:44:20;;;;;;;12.85;11.07;;;21.30;99.30;;;;;;10326669;28;20268;-83
2023/09/18 18:49:23;;;;;;;31.10;11.55;;;21.40;99.40;;;;;;10326749;28;20307;-83
2023/09/18 18:54:26;;;;;;;10.18;8.15;;;21.30;99.70;;;;;;10287268;28;20688;-83
2023/09/18 18:59:29;;;;;;;12.38;11.07;;;21.30;99.40;;;;;;10282236;28;20237;-83
2023/09/18 19:04:31;;;;;;;11.02;9.82;;;21.30;99.80;;;;;;10286104;28;20300;-83
2023/09/18 19:09:34;;;;;;;16.13;13.60;;;21.30;99.90;;;;;;10286696;28;20685;-83
2023/09/18 19:14:37;;;;;;;18.10;12.40;;;21.30;99.90;;;;;;10284029;28;20742;-84
2023/09/18 19:19:40;;;;;;;12.95;11.70;;;21.20;99.90;;;;;;10284607;28;20276;-83
2023/09/18 19:24:42;;;;;;;13.65;12.25;;;21.20;99.90;;;;;;10268891;28;20300;-83
2023/09/18 19:29:45;;;;;;;13.40;10.50;;;21.20;99.90;;;;;;10275878;28;20677;-83
2023/09/18 19:34:48;;;;;;;20.00;14.10;;;21.20;99.90;;;;;;10282977;28;20291;-83
2023/09/18 19:39:51;;;;;;;16.58;12.20;;;21.10;99.90;;;;;;10285743;28;20241;-83
2023/09/18 19:44:55;;;;;;;15.38;13.20;;;21.10;99.90;;;;;;10286157;28;20324;-83
2023/09/18 19:49:58;;;;;;;14.25;12.20;;;21.10;99.90;;;;;;10283448;28;20233;-83
2023/09/18 19:55:01;;;;;;;15.88;13.95;;;21.20;99.90;;;;;;10284515;28;20288;-84
2023/09/18 20:00:06;;;;;;;14.60;12.40;;;21.20;99.90;;;;;;10294322;28;20245;-83
2023/09/18 20:05:15;;;;;;;9.65;8.65;;;21.20;99.90;;;;;;10282543;28;20248;-83
2023/09/18 20:10:18;;;;;;;14.20;11.60;;;21.20;99.90;;;;;;10283106;28;20296;-82
2023/09/18 20:15:21;;;;;;;19.20;17.15;;;21.20;99.90;;;;;;10291326;28;20241;-82
2023/09/18 20:20:26;;;;;;;30.17;19.55;;;21.20;99.90;;;;;;10287172;28;20282;-83
2023/09/18 20:25:28;;;;;;;20.60;16.15;;;21.20;99.90;;;;;;10288878;28;20288;-83
2023/09/18 20:30:31;;;;;;;21.35;13.02;;;21.20;99.70;;;;;;10280990;28;20308;-83
2023/09/18 20:35:33;;;;;;;16.95;15.15;;;21.20;99.60;;;;;;10278499;28;20598;-84
2023/09/18 20:40:38;;;;;;;21.63;16.77;;;21.20;99.80;;;;;;10289745;28;20307;-83
2023/09/18 20:45:41;;;;;;;17.23;11.52;;;21.10;99.90;;;;;;10311679;28;20283;-83
2023/09/18 20:50:44;;;;;;;24.42;20.52;;;21.10;99.80;;;;;;10334474;28;20295;-83
2023/09/18 20:55:46;;;;;;;20.92;16.15;;;21.20;99.70;;;;;;10330326;28;20628;-83
2023/09/18 21:00:51;;;;;;;21.95;18.38;;;21.20;99.50;;;;;;10331669;28;20248;-83
2023/09/18 21:05:54;;;;;;;20.15;17.55;;;21.20;99.90;;;;;;10335552;28;20291;-83
2023/09/18 21:10:59;;;;;;;19.90;17.77;;;21.20;99.90;;;;;;10333553;28;20267;-83
2023/09/18 21:16:03;;;;;;;29.90;21.35;;;21.10;99.90;;;;;;10329762;28;20294;-83
2023/09/18 21:21:05;;;;;;;21.10;18.90;;;21.00;99.90;;;;;;10360007;28;20654;-83
2023/09/18 21:26:18;;;;;;;26.33;20.70;;;20.90;99.90;;;;;;10327789;28;20282;-82
2023/09/18 21:31:21;;;;;;;22.65;16.20;;;20.90;99.90;;;;;;10332429;28;20298;-82
2023/09/18 21:36:24;;;;;;;24.75;21.05;;;20.90;99.90;;;;;;10316898;28;20236;-82
2023/09/18 21:41:27;;;;;;;25.20;21.27;;;20.90;99.90;;;;;;10327279;28;20264;-82
2023/09/18 21:46:31;;;;;;;25.98;20.27;;;20.90;99.90;;;;;;10333901;28;20720;-83
2023/09/18 21:51:38;;;;;;;25.70;21.05;;;20.80;99.90;;;;;;10325317;28;20631;-81
2023/09/18 21:56:46;;;;;;;24.15;19.90;;;20.80;99.90;;;;;;10513956;23;10002424;-89
2023/09/18 22:01:52;;;;;;;21.70;17.25;;;20.80;99.90;;;;;;10379506;28;20320;-84
2023/09/18 22:06:55;;;;;;;20.95;17.20;;;20.70;99.90;;;;;;10367966;28;20294;-84
2023/09/18 22:12:02;;;;;;;13.93;12.32;;;20.70;99.90;;;;;;10401591;28;20288;-83
2023/09/18 22:17:05;;;;;;;10.27;9.13;;;20.70;99.90;;;;;;10383257;28;20624;-82
2023/09/18 22:22:09;;;;;;;12.50;9.70;;;21.00;99.90;;;;;;10392764;28;20344;-83
2023/09/18 22:27:16;;;;;;;9.70;8.68;;;21.20;99.90;;;;;;10406313;28;20762;-83
2023/09/18 22:46:29;;;;;;;9.40;7.45;;;22.10;96.10;;;;;;10381136;28;20674;-83
2023/09/18 23:05:42;;;;;;;8.73;5.90;;;22.20;94.90;;;;;;9760608;28;20223;-83
2023/09/18 23:10:44;;;;;;;7.15;6.45;;;22.20;94.80;;;;;;10365446;28;20240;-83
2023/09/18 23:15:47;;;;;;;8.60;7.13;;;22.10;95.40;;;;;;10366049;28;20302;-83
2023/09/18 23:20:50;;;;;;;5.45;4.70;;;22.00;95.60;;;;;;10366789;28;20231;-83
2023/09/18 23:25:56;;;;;;;6.32;5.00;;;21.90;96.40;;;;;;10364794;28;20232;-83
2023/09/18 23:30:59;;;;;;;6.75;6.05;;;21.70;97.20;;;;;;10365363;28;20277;-84
2023/09/18 23:36:03;;;;;;;5.60;5.03;;;21.50;97.60;;;;;;10388853;28;20231;-83
2023/09/18 23:41:05;;;;;;;9.82;6.95;;;21.40;99.40;;;;;;10388544;28;20719;-84
2023/09/18 23:46:10;;;;;;;4.95;3.47;;;21.30;98.90;;;;;;10382086;28;20290;-84
2023/09/18 23:51:13;;;;;;;5.88;4.85;;;21.20;99.90;;;;;;10401324;28;20235;-84
2023/09/18 23:56:16;;;;;;;7.18;6.20;;;21.00;99.90;;;;;;10378888;28;20262;-84
